sensor_id;sensor_type;location;lat;lon;timestamp;P1;durP1;ratioP1;P2;durP2;ratioP2
2011;SDS011;1009;51.436;6.972;2023-02-28T00:01:45;8.60;;;6.30;;
2011;SDS011;1009;51.436;6.972;2023-02-28T00:04:13;7.73;;;6.87;;
2011;SDS011;1009;51.436;6.972;2023-02-28T00:06:40;7.83;;;6.30;;
2011;SDS011;1009;51.436;6.972;2023-02-28T00:09:07;9.13;;;6.73;;
2011;SDS011;1009;51.436;6.972;2023-02-28T00:11:34;6.63;;;5.93;;
2011;SDS011;1009;51.436;6.972;2023-02-28T00:14:02;7.47;;;6.63;;
2011;SDS011;1009;51.436;6.972;2023-02-28T00:16:29;7.43;;;6.33;;
2011;SDS011;1009;51.436;6.972;2023-02-28T00:18:56;7.97;;;6.53;;
2011;SDS011;1009;51.436;6.972;2023-02-28T00:21:24;7.30;;;6.10;;
2011;SDS011;1009;51.436;6.972;2023-02-28T00:23:51;6.50;;;5.70;;
2011;SDS011;1009;51.436;6.972;2023-02-28T00:26:18;5.87;;;5.23;;
2011;SDS011;1009;51.436;6.972;2023-02-28T00:28:44;7.03;;;6.33;;
2011;SDS011;1009;51.436;6.972;2023-02-28T00:31:11;7.83;;;5.70;;
2011;SDS011;1009;51.436;6.972;2023-02-28T00:33:38;8.20;;;5.50;;
2011;SDS011;1009;51.436;6.972;2023-02-28T00:36:05;7.00;;;6.30;;
2011;SDS011;1009;51.436;6.972;2023-02-28T00:38:35;5.60;;;4.97;;
2011;SDS011;1009;51.436;6.972;2023-02-28T00:41:02;8.00;;;5.50;;
2011;SDS011;1009;51.436;6.972;2023-02-28T00:43:30;7.43;;;5.30;;
2011;SDS011;1009;51.436;6.972;2023-02-28T00:45:57;8.83;;;5.90;;
2011;SDS011;1009;51.436;6.972;2023-02-28T00:48:24;6.60;;;5.13;;
2011;SDS011;1009;51.436;6.972;2023-02-28T00:50:51;7.13;;;5.30;;
2011;SDS011;1009;51.436;6.972;2023-02-28T00:53:18;7.60;;;5.50;;
2011;SDS011;1009;51.436;6.972;2023-02-28T00:55:47;5.90;;;5.03;;
2011;SDS011;1009;51.436;6.972;2023-02-28T00:58:14;7.67;;;5.07;;
2011;SDS011;1009;51.436;6.972;2023-02-28T01:00:40;7.27;;;4.70;;
2011;SDS011;1009;51.436;6.972;2023-02-28T01:03:07;6.80;;;4.50;;
2011;SDS011;1009;51.436;6.972;2023-02-28T01:05:34;6.13;;;4.60;;
2011;SDS011;1009;51.436;6.972;2023-02-28T01:08:00;5.77;;;4.23;;
2011;SDS011;1009;51.436;6.972;2023-02-28T01:10:27;5.80;;;4.73;;
2011;SDS011;1009;51.436;6.972;2023-02-28T01:12:57;9.47;;;4.93;;
2011;SDS011;1009;51.436;6.972;2023-02-28T01:15:24;10.40;;;5.43;;
2011;SDS011;1009;51.436;6.972;2023-02-28T01:17:51;5.77;;;4.43;;
2011;SDS011;1009;51.436;6.972;2023-02-28T01:20:17;7.37;;;4.97;;
2011;SDS011;1009;51.436;6.972;2023-02-28T01:22:44;6.30;;;4.67;;
2011;SDS011;1009;51.436;6.972;2023-02-28T01:25:11;6.57;;;5.20;;
2011;SDS011;1009;51.436;6.972;2023-02-28T01:27:38;6.40;;;5.33;;
2011;SDS011;1009;51.436;6.972;2023-02-28T01:30:07;6.70;;;5.40;;
2011;SDS011;1009;51.436;6.972;2023-02-28T01:32:34;6.50;;;5.90;;
2011;SDS011;1009;51.436;6.972;2023-02-28T01:35:01;7.73;;;6.10;;
2011;SDS011;1009;51.436;6.972;2023-02-28T01:37:28;7.67;;;5.80;;
2011;SDS011;1009;51.436;6.972;2023-02-28T01:39:55;8.03;;;6.03;;
2011;SDS011;1009;51.436;6.972;2023-02-28T01:42:22;11.20;;;6.80;;
2011;SDS011;1009;51.436;6.972;2023-02-28T01:44:57;9.00;;;6.40;;
2011;SDS011;1009;51.436;6.972;2023-02-28T01:47:34;7.37;;;5.73;;
2011;SDS011;1009;51.436;6.972;2023-02-28T01:50:05;7.00;;;6.30;;
2011;SDS011;1009;51.436;6.972;2023-02-28T01:52:35;7.77;;;5.90;;
2011;SDS011;1009;51.436;6.972;2023-02-28T01:55:03;9.40;;;6.10;;
2011;SDS011;1009;51.436;6.972;2023-02-28T01:57:32;7.53;;;6.00;;
2011;SDS011;1009;51.436;6.972;2023-02-28T02:00:07;9.53;;;5.53;;
2011;SDS011;1009;51.436;6.972;2023-02-28T02:02:37;8.50;;;5.70;;
2011;SDS011;1009;51.436;6.972;2023-02-28T02:05:05;7.47;;;5.67;;
2011;SDS011;1009;51.436;6.972;2023-02-28T02:07:34;9.30;;;5.63;;
2011;SDS011;1009;51.436;6.972;2023-02-28T02:10:04;8.30;;;5.83;;
2011;SDS011;1009;51.436;6.972;2023-02-28T02:12:35;6.47;;;5.63;;
2011;SDS011;1009;51.436;6.972;2023-02-28T02:15:16;7.43;;;5.17;;
2011;SDS011;1009;51.436;6.972;2023-02-28T02:17:51;7.63;;;5.80;;
2011;SDS011;1009;51.436;6.972;2023-02-28T02:20:33;7.07;;;5.37;;
2011;SDS011;1009;51.436;6.972;2023-02-28T02:23:32;7.03;;;5.53;;
2011;SDS011;1009;51.436;6.972;2023-02-28T02:26:19;5.23;;;4.70;;
2011;SDS011;1009;51.436;6.972;2023-02-28T02:29:18;6.80;;;5.00;;
2011;SDS011;1009;51.436;6.972;2023-02-28T02:32:20;7.70;;;5.90;;
2011;SDS011;1009;51.436;6.972;2023-02-28T02:35:09;8.20;;;6.20;;
2011;SDS011;1009;51.436;6.972;2023-02-28T02:37:40;6.90;;;5.30;;
2011;SDS011;1009;51.436;6.972;2023-02-28T02:40:14;7.53;;;5.77;;
2011;SDS011;1009;51.436;6.972;2023-02-28T02:42:45;7.93;;;5.40;;
2011;SDS011;1009;51.436;6.972;2023-02-28T02:45:19;9.33;;;6.13;;
2011;SDS011;1009;51.436;6.972;2023-02-28T02:47:52;6.53;;;5.50;;
2011;SDS011;1009;51.436;6.972;2023-02-28T02:50:24;5.63;;;5.13;;
2011;SDS011;1009;51.436;6.972;2023-02-28T02:52:54;7.30;;;5.87;;
2011;SDS011;1009;51.436;6.972;2023-02-28T02:55:23;8.57;;;5.80;;
2011;SDS011;1009;51.436;6.972;2023-02-28T02:57:51;8.10;;;5.70;;
2011;SDS011;1009;51.436;6.972;2023-02-28T03:00:22;10.50;;;5.87;;
2011;SDS011;1009;51.436;6.972;2023-02-28T03:02:52;9.10;;;5.80;;
2011;SDS011;1009;51.436;6.972;2023-02-28T03:05:21;8.27;;;5.73;;
2011;SDS011;1009;51.436;6.972;2023-02-28T03:07:52;6.87;;;5.87;;
2011;SDS011;1009;51.436;6.972;2023-02-28T03:10:26;9.60;;;5.77;;
2011;SDS011;1009;51.436;6.972;2023-02-28T03:16:16;6.60;;;5.43;;
2011;SDS011;1009;51.436;6.972;2023-02-28T03:19:08;6.40;;;5.50;;
2011;SDS011;1009;51.436;6.972;2023-02-28T03:22:18;6.30;;;4.83;;
2011;SDS011;1009;51.436;6.972;2023-02-28T03:24:56;4.93;;;4.47;;
2011;SDS011;1009;51.436;6.972;2023-02-28T03:27:29;7.90;;;4.63;;
2011;SDS011;1009;51.436;6.972;2023-02-28T03:29:58;5.80;;;4.20;;
2011;SDS011;1009;51.436;6.972;2023-02-28T03:32:29;6.73;;;4.87;;
2011;SDS011;1009;51.436;6.972;2023-02-28T03:35:02;6.40;;;4.20;;
2011;SDS011;1009;51.436;6.972;2023-02-28T03:37:36;6.80;;;4.43;;
2011;SDS011;1009;51.436;6.972;2023-02-28T03:40:07;6.70;;;4.10;;
2011;SDS011;1009;51.436;6.972;2023-02-28T03:42:37;6.43;;;4.20;;
2011;SDS011;1009;51.436;6.972;2023-02-28T03:45:09;5.67;;;3.70;;
2011;SDS011;1009;51.436;6.972;2023-02-28T03:47:40;5.33;;;4.43;;
2011;SDS011;1009;51.436;6.972;2023-02-28T03:50:11;3.87;;;3.47;;
2011;SDS011;1009;51.436;6.972;2023-02-28T03:52:45;5.50;;;3.70;;
2011;SDS011;1009;51.436;6.972;2023-02-28T03:55:15;4.50;;;3.60;;
2011;SDS011;1009;51.436;6.972;2023-02-28T03:57:47;4.33;;;3.73;;
2011;SDS011;1009;51.436;6.972;2023-02-28T04:00:20;4.57;;;3.97;;
2011;SDS011;1009;51.436;6.972;2023-02-28T04:02:53;7.53;;;3.53;;
2011;SDS011;1009;51.436;6.972;2023-02-28T04:05:20;5.53;;;3.50;;
2011;SDS011;1009;51.436;6.972;2023-02-28T04:07:48;5.60;;;4.00;;
2011;SDS011;1009;51.436;6.972;2023-02-28T04:10:15;6.87;;;4.10;;
2011;SDS011;1009;51.436;6.972;2023-02-28T04:12:43;7.93;;;3.70;;
2011;SDS011;1009;51.436;6.972;2023-02-28T04:15:09;4.73;;;3.57;;
2011;SDS011;1009;51.436;6.972;2023-02-28T04:17:36;5.70;;;3.80;;
2011;SDS011;1009;51.436;6.972;2023-02-28T04:20:03;5.93;;;4.33;;
2011;SDS011;1009;51.436;6.972;2023-02-28T04:22:34;7.10;;;3.87;;
2011;SDS011;1009;51.436;6.972;2023-02-28T04:25:03;8.30;;;4.03;;
2011;SDS011;1009;51.436;6.972;2023-02-28T04:27:31;4.20;;;3.50;;
2011;SDS011;1009;51.436;6.972;2023-02-28T04:29:58;5.33;;;3.70;;
2011;SDS011;1009;51.436;6.972;2023-02-28T04:32:24;5.63;;;4.00;;
2011;SDS011;1009;51.436;6.972;2023-02-28T04:34:51;3.80;;;3.37;;
2011;SDS011;1009;51.436;6.972;2023-02-28T04:37:18;8.67;;;4.43;;
2011;SDS011;1009;51.436;6.972;2023-02-28T04:39:44;5.27;;;3.83;;
2011;SDS011;1009;51.436;6.972;2023-02-28T04:42:12;4.70;;;4.20;;
2011;SDS011;1009;51.436;6.972;2023-02-28T04:44:39;7.57;;;4.70;;
2011;SDS011;1009;51.436;6.972;2023-02-28T04:47:06;5.53;;;4.40;;
2011;SDS011;1009;51.436;6.972;2023-02-28T04:49:33;4.33;;;3.67;;
2011;SDS011;1009;51.436;6.972;2023-02-28T04:51:59;4.40;;;3.90;;
2011;SDS011;1009;51.436;6.972;2023-02-28T04:54:26;6.63;;;3.77;;
2011;SDS011;1009;51.436;6.972;2023-02-28T04:56:54;4.53;;;3.57;;
2011;SDS011;1009;51.436;6.972;2023-02-28T04:59:22;8.03;;;4.00;;
2011;SDS011;1009;51.436;6.972;2023-02-28T05:01:49;6.67;;;4.23;;
2011;SDS011;1009;51.436;6.972;2023-02-28T05:04:16;5.50;;;4.00;;
2011;SDS011;1009;51.436;6.972;2023-02-28T05:06:43;5.53;;;4.40;;
2011;SDS011;1009;51.436;6.972;2023-02-28T05:09:09;4.47;;;4.07;;
2011;SDS011;1009;51.436;6.972;2023-02-28T05:11:37;5.00;;;4.00;;
2011;SDS011;1009;51.436;6.972;2023-02-28T05:14:05;4.80;;;3.60;;
2011;SDS011;1009;51.436;6.972;2023-02-28T05:16:36;4.27;;;3.87;;
2011;SDS011;1009;51.436;6.972;2023-02-28T05:19:03;5.10;;;3.93;;
2011;SDS011;1009;51.436;6.972;2023-02-28T05:21:31;7.43;;;4.40;;
2011;SDS011;1009;51.436;6.972;2023-02-28T05:23:59;6.97;;;4.27;;
2011;SDS011;1009;51.436;6.972;2023-02-28T05:26:27;6.17;;;4.50;;
2011;SDS011;1009;51.436;6.972;2023-02-28T05:28:54;5.70;;;3.90;;
2011;SDS011;1009;51.436;6.972;2023-02-28T05:31:21;4.57;;;4.17;;
2011;SDS011;1009;51.436;6.972;2023-02-28T05:33:49;6.73;;;4.37;;
2011;SDS011;1009;51.436;6.972;2023-02-28T05:36:16;5.37;;;4.50;;
2011;SDS011;1009;51.436;6.972;2023-02-28T05:38:45;5.17;;;3.93;;
2011;SDS011;1009;51.436;6.972;2023-02-28T05:41:12;7.10;;;4.70;;
2011;SDS011;1009;51.436;6.972;2023-02-28T05:43:39;7.37;;;4.37;;
2011;SDS011;1009;51.436;6.972;2023-02-28T05:46:06;5.70;;;4.20;;
2011;SDS011;1009;51.436;6.972;2023-02-28T05:48:34;7.27;;;4.63;;
2011;SDS011;1009;51.436;6.972;2023-02-28T05:51:04;7.50;;;4.70;;
2011;SDS011;1009;51.436;6.972;2023-02-28T05:53:31;6.80;;;4.50;;
2011;SDS011;1009;51.436;6.972;2023-02-28T05:55:58;4.53;;;3.80;;
2011;SDS011;1009;51.436;6.972;2023-02-28T05:58:25;4.60;;;3.83;;
2011;SDS011;1009;51.436;6.972;2023-02-28T06:00:55;7.83;;;4.67;;
2011;SDS011;1009;51.436;6.972;2023-02-28T06:03:22;4.77;;;4.23;;
2011;SDS011;1009;51.436;6.972;2023-02-28T06:05:49;6.50;;;4.13;;
2011;SDS011;1009;51.436;6.972;2023-02-28T06:08:17;4.00;;;3.53;;
2011;SDS011;1009;51.436;6.972;2023-02-28T06:10:44;5.77;;;4.70;;
2011;SDS011;1009;51.436;6.972;2023-02-28T06:13:11;5.17;;;4.10;;
2011;SDS011;1009;51.436;6.972;2023-02-28T06:15:38;6.20;;;4.47;;
2011;SDS011;1009;51.436;6.972;2023-02-28T06:18:05;7.73;;;4.77;;
2011;SDS011;1009;51.436;6.972;2023-02-28T06:20:32;5.63;;;4.30;;
2011;SDS011;1009;51.436;6.972;2023-02-28T06:22:59;8.60;;;4.50;;
2011;SDS011;1009;51.436;6.972;2023-02-28T06:25:27;6.43;;;4.23;;
2011;SDS011;1009;51.436;6.972;2023-02-28T06:27:54;7.50;;;4.77;;
2011;SDS011;1009;51.436;6.972;2023-02-28T06:30:21;6.07;;;4.43;;
2011;SDS011;1009;51.436;6.972;2023-02-28T06:32:50;5.87;;;4.63;;
2011;SDS011;1009;51.436;6.972;2023-02-28T06:35:17;5.83;;;3.97;;
2011;SDS011;1009;51.436;6.972;2023-02-28T06:37:44;4.63;;;4.00;;
2011;SDS011;1009;51.436;6.972;2023-02-28T06:40:12;4.63;;;4.00;;
2011;SDS011;1009;51.436;6.972;2023-02-28T06:42:44;5.97;;;4.57;;
2011;SDS011;1009;51.436;6.972;2023-02-28T06:45:11;7.13;;;4.70;;
2011;SDS011;1009;51.436;6.972;2023-02-28T06:47:39;6.80;;;4.30;;
2011;SDS011;1009;51.436;6.972;2023-02-28T06:50:07;5.70;;;4.30;;
2011;SDS011;1009;51.436;6.972;2023-02-28T06:52:36;4.47;;;3.47;;
2011;SDS011;1009;51.436;6.972;2023-02-28T06:55:03;6.13;;;3.93;;
2011;SDS011;1009;51.436;6.972;2023-02-28T06:57:32;5.00;;;4.50;;
2011;SDS011;1009;51.436;6.972;2023-02-28T07:00:03;5.93;;;4.80;;
2011;SDS011;1009;51.436;6.972;2023-02-28T07:02:32;6.67;;;5.37;;
2011;SDS011;1009;51.436;6.972;2023-02-28T07:04:59;5.93;;;4.77;;
2011;SDS011;1009;51.436;6.972;2023-02-28T07:07:26;5.70;;;5.20;;
2011;SDS011;1009;51.436;6.972;2023-02-28T07:09:52;5.13;;;4.30;;
2011;SDS011;1009;51.436;6.972;2023-02-28T07:12:19;6.00;;;4.93;;
2011;SDS011;1009;51.436;6.972;2023-02-28T07:14:46;8.07;;;4.87;;
2011;SDS011;1009;51.436;6.972;2023-02-28T07:17:14;8.63;;;4.47;;
2011;SDS011;1009;51.436;6.972;2023-02-28T07:19:41;7.30;;;4.97;;
2011;SDS011;1009;51.436;6.972;2023-02-28T07:22:07;7.43;;;5.27;;
2011;SDS011;1009;51.436;6.972;2023-02-28T07:24:34;7.20;;;5.00;;
2011;SDS011;1009;51.436;6.972;2023-02-28T07:27:01;6.50;;;4.63;;
2011;SDS011;1009;51.436;6.972;2023-02-28T07:29:28;8.27;;;5.37;;
2011;SDS011;1009;51.436;6.972;2023-02-28T07:31:54;9.10;;;5.33;;
2011;SDS011;1009;51.436;6.972;2023-02-28T07:34:23;7.03;;;4.60;;
2011;SDS011;1009;51.436;6.972;2023-02-28T07:36:52;7.60;;;5.37;;
2011;SDS011;1009;51.436;6.972;2023-02-28T07:39:19;6.87;;;4.77;;
2011;SDS011;1009;51.436;6.972;2023-02-28T07:41:46;7.43;;;4.43;;
2011;SDS011;1009;51.436;6.972;2023-02-28T07:44:13;7.30;;;5.90;;
2011;SDS011;1009;51.436;6.972;2023-02-28T07:46:39;9.43;;;4.60;;
2011;SDS011;1009;51.436;6.972;2023-02-28T07:49:06;6.10;;;4.50;;
2011;SDS011;1009;51.436;6.972;2023-02-28T07:51:34;6.13;;;4.80;;
2011;SDS011;1009;51.436;6.972;2023-02-28T07:54:01;8.63;;;5.23;;
2011;SDS011;1009;51.436;6.972;2023-02-28T07:56:28;8.53;;;4.83;;
2011;SDS011;1009;51.436;6.972;2023-02-28T07:58:55;7.07;;;5.30;;
2011;SDS011;1009;51.436;6.972;2023-02-28T08:01:21;6.73;;;5.20;;
2011;SDS011;1009;51.436;6.972;2023-02-28T08:03:48;6.90;;;4.97;;
2011;SDS011;1009;51.436;6.972;2023-02-28T08:06:16;9.60;;;4.30;;
2011;SDS011;1009;51.436;6.972;2023-02-28T08:08:45;6.67;;;4.80;;
2011;SDS011;1009;51.436;6.972;2023-02-28T08:11:12;8.60;;;4.93;;
2011;SDS011;1009;51.436;6.972;2023-02-28T08:13:39;5.80;;;4.90;;
2011;SDS011;1009;51.436;6.972;2023-02-28T08:16:07;7.53;;;4.53;;
2011;SDS011;1009;51.436;6.972;2023-02-28T08:18:34;6.20;;;4.40;;
2011;SDS011;1009;51.436;6.972;2023-02-28T08:21:05;6.40;;;5.07;;
2011;SDS011;1009;51.436;6.972;2023-02-28T08:23:32;6.17;;;4.23;;
2011;SDS011;1009;51.436;6.972;2023-02-28T08:26:01;5.27;;;4.50;;
2011;SDS011;1009;51.436;6.972;2023-02-28T08:28:28;5.53;;;4.57;;
2011;SDS011;1009;51.436;6.972;2023-02-28T08:30:55;6.87;;;4.33;;
2011;SDS011;1009;51.436;6.972;2023-02-28T08:33:22;9.63;;;5.30;;
2011;SDS011;1009;51.436;6.972;2023-02-28T08:35:51;4.90;;;4.23;;
2011;SDS011;1009;51.436;6.972;2023-02-28T08:38:19;6.97;;;4.87;;
2011;SDS011;1009;51.436;6.972;2023-02-28T08:40:46;8.07;;;5.00;;
2011;SDS011;1009;51.436;6.972;2023-02-28T08:43:14;5.33;;;4.80;;
2011;SDS011;1009;51.436;6.972;2023-02-28T08:45:40;7.30;;;5.10;;
2011;SDS011;1009;51.436;6.972;2023-02-28T08:48:07;10.70;;;5.43;;
2011;SDS011;1009;51.436;6.972;2023-02-28T08:50:34;6.60;;;4.90;;
2011;SDS011;1009;51.436;6.972;2023-02-28T08:53:00;6.10;;;4.80;;
2011;SDS011;1009;51.436;6.972;2023-02-28T08:55:27;9.40;;;5.17;;
2011;SDS011;1009;51.436;6.972;2023-02-28T08:57:54;6.53;;;5.50;;
2011;SDS011;1009;51.436;6.972;2023-02-28T09:00:22;6.17;;;4.30;;
2011;SDS011;1009;51.436;6.972;2023-02-28T09:02:49;7.50;;;4.83;;
2011;SDS011;1009;51.436;6.972;2023-02-28T09:05:16;6.40;;;4.80;;
2011;SDS011;1009;51.436;6.972;2023-02-28T09:07:43;5.20;;;3.80;;
2011;SDS011;1009;51.436;6.972;2023-02-28T09:10:10;5.50;;;3.40;;
2011;SDS011;1009;51.436;6.972;2023-02-28T09:12:37;5.63;;;4.43;;
2011;SDS011;1009;51.436;6.972;2023-02-28T09:15:04;8.97;;;4.17;;
2011;SDS011;1009;51.436;6.972;2023-02-28T09:17:33;8.50;;;4.37;;
2011;SDS011;1009;51.436;6.972;2023-02-28T09:20:01;4.30;;;3.63;;
2011;SDS011;1009;51.436;6.972;2023-02-28T09:22:28;4.80;;;4.40;;
2011;SDS011;1009;51.436;6.972;2023-02-28T09:24:54;6.50;;;4.07;;
2011;SDS011;1009;51.436;6.972;2023-02-28T09:27:21;4.50;;;4.10;;
2011;SDS011;1009;51.436;6.972;2023-02-28T09:29:48;4.93;;;4.13;;
2011;SDS011;1009;51.436;6.972;2023-02-28T09:32:14;6.07;;;4.17;;
2011;SDS011;1009;51.436;6.972;2023-02-28T09:34:44;4.33;;;3.60;;
2011;SDS011;1009;51.436;6.972;2023-02-28T09:37:11;5.67;;;4.27;;
2011;SDS011;1009;51.436;6.972;2023-02-28T09:39:37;4.30;;;3.67;;
2011;SDS011;1009;51.436;6.972;2023-02-28T09:42:04;4.70;;;3.93;;
2011;SDS011;1009;51.436;6.972;2023-02-28T09:44:35;4.10;;;3.30;;
2011;SDS011;1009;51.436;6.972;2023-02-28T09:47:05;4.57;;;3.10;;
2011;SDS011;1009;51.436;6.972;2023-02-28T09:49:38;4.87;;;2.97;;
2011;SDS011;1009;51.436;6.972;2023-02-28T09:52:10;3.73;;;2.43;;
2011;SDS011;1009;51.436;6.972;2023-02-28T09:54:41;3.37;;;2.63;;
2011;SDS011;1009;51.436;6.972;2023-02-28T09:57:08;3.53;;;3.07;;
2011;SDS011;1009;51.436;6.972;2023-02-28T09:59:56;2.80;;;2.50;;
2011;SDS011;1009;51.436;6.972;2023-02-28T10:02:44;4.30;;;2.83;;
2011;SDS011;1009;51.436;6.972;2023-02-28T10:05:23;3.47;;;2.70;;
2011;SDS011;1009;51.436;6.972;2023-02-28T10:08:00;2.80;;;2.50;;
2011;SDS011;1009;51.436;6.972;2023-02-28T10:10:36;2.50;;;2.30;;
2011;SDS011;1009;51.436;6.972;2023-02-28T10:13:05;2.60;;;2.40;;
2011;SDS011;1009;51.436;6.972;2023-02-28T10:15:43;5.07;;;3.07;;
2011;SDS011;1009;51.436;6.972;2023-02-28T10:18:14;3.93;;;3.10;;
2011;SDS011;1009;51.436;6.972;2023-02-28T10:20:45;3.00;;;2.67;;
2011;SDS011;1009;51.436;6.972;2023-02-28T10:23:17;3.60;;;3.20;;
2011;SDS011;1009;51.436;6.972;2023-02-28T10:25:49;4.17;;;2.77;;
2011;SDS011;1009;51.436;6.972;2023-02-28T10:28:20;3.07;;;2.67;;
2011;SDS011;1009;51.436;6.972;2023-02-28T10:30:47;3.07;;;2.77;;
2011;SDS011;1009;51.436;6.972;2023-02-28T10:33:19;4.60;;;2.40;;
2011;SDS011;1009;51.436;6.972;2023-02-28T10:35:48;3.53;;;2.57;;
2011;SDS011;1009;51.436;6.972;2023-02-28T10:38:18;2.90;;;2.27;;
2011;SDS011;1009;51.436;6.972;2023-02-28T10:40:46;3.10;;;2.80;;
2011;SDS011;1009;51.436;6.972;2023-02-28T10:43:21;2.80;;;2.60;;
2011;SDS011;1009;51.436;6.972;2023-02-28T10:45:53;2.80;;;2.43;;
2011;SDS011;1009;51.436;6.972;2023-02-28T10:48:30;3.20;;;2.60;;
2011;SDS011;1009;51.436;6.972;2023-02-28T10:50:59;4.10;;;2.80;;
2011;SDS011;1009;51.436;6.972;2023-02-28T10:53:35;3.03;;;2.30;;
2011;SDS011;1009;51.436;6.972;2023-02-28T10:56:06;3.20;;;2.50;;
2011;SDS011;1009;51.436;6.972;2023-02-28T10:58:46;3.30;;;2.40;;
2011;SDS011;1009;51.436;6.972;2023-02-28T11:01:16;3.90;;;2.37;;
2011;SDS011;1009;51.436;6.972;2023-02-28T11:03:45;2.93;;;1.93;;
2011;SDS011;1009;51.436;6.972;2023-02-28T11:06:14;2.97;;;2.63;;
2011;SDS011;1009;51.436;6.972;2023-02-28T11:08:49;2.97;;;2.47;;
2011;SDS011;1009;51.436;6.972;2023-02-28T11:11:19;2.60;;;2.20;;
2011;SDS011;1009;51.436;6.972;2023-02-28T11:13:48;3.67;;;2.00;;
2011;SDS011;1009;51.436;6.972;2023-02-28T11:16:18;3.83;;;2.60;;
2011;SDS011;1009;51.436;6.972;2023-02-28T11:18:47;2.37;;;2.17;;
2011;SDS011;1009;51.436;6.972;2023-02-28T11:21:16;3.53;;;2.43;;
2011;SDS011;1009;51.436;6.972;2023-02-28T11:23:48;4.80;;;2.60;;
2011;SDS011;1009;51.436;6.972;2023-02-28T11:26:35;3.10;;;2.60;;
2011;SDS011;1009;51.436;6.972;2023-02-28T11:29:10;4.90;;;2.20;;
2011;SDS011;1009;51.436;6.972;2023-02-28T11:31:42;2.67;;;2.20;;
2011;SDS011;1009;51.436;6.972;2023-02-28T11:36:57;2.93;;;2.33;;
2011;SDS011;1009;51.436;6.972;2023-02-28T11:39:28;2.50;;;2.00;;
2011;SDS011;1009;51.436;6.972;2023-02-28T11:41:58;2.43;;;2.23;;
2011;SDS011;1009;51.436;6.972;2023-02-28T11:44:38;3.03;;;2.53;;
2011;SDS011;1009;51.436;6.972;2023-02-28T11:47:12;2.80;;;2.50;;
2011;SDS011;1009;51.436;6.972;2023-02-28T11:49:48;3.00;;;2.60;;
2011;SDS011;1009;51.436;6.972;2023-02-28T11:52:21;3.00;;;2.60;;
2011;SDS011;1009;51.436;6.972;2023-02-28T11:55:00;2.80;;;2.60;;
2011;SDS011;1009;51.436;6.972;2023-02-28T11:57:40;2.90;;;2.57;;
2011;SDS011;1009;51.436;6.972;2023-02-28T12:00:25;3.50;;;2.70;;
2011;SDS011;1009;51.436;6.972;2023-02-28T12:03:10;3.13;;;2.40;;
2011;SDS011;1009;51.436;6.972;2023-02-28T12:05:49;2.70;;;2.50;;
2011;SDS011;1009;51.436;6.972;2023-02-28T12:08:27;4.27;;;3.00;;
2011;SDS011;1009;51.436;6.972;2023-02-28T12:11:09;3.50;;;2.50;;
2011;SDS011;1009;51.436;6.972;2023-02-28T12:13:45;5.13;;;3.10;;
2011;SDS011;1009;51.436;6.972;2023-02-28T12:16:25;4.30;;;2.90;;
2011;SDS011;1009;51.436;6.972;2023-02-28T12:19:07;3.03;;;2.67;;
2011;SDS011;1009;51.436;6.972;2023-02-28T12:21:48;3.83;;;2.90;;
2011;SDS011;1009;51.436;6.972;2023-02-28T12:24:50;2.60;;;2.40;;
2011;SDS011;1009;51.436;6.972;2023-02-28T12:27:30;3.43;;;2.73;;
2011;SDS011;1009;51.436;6.972;2023-02-28T12:30:01;4.00;;;2.83;;
2011;SDS011;1009;51.436;6.972;2023-02-28T12:32:32;4.23;;;2.87;;
2011;SDS011;1009;51.436;6.972;2023-02-28T12:35:03;3.20;;;3.00;;
2011;SDS011;1009;51.436;6.972;2023-02-28T12:37:39;4.73;;;2.80;;
2011;SDS011;1009;51.436;6.972;2023-02-28T12:40:12;4.27;;;2.90;;
2011;SDS011;1009;51.436;6.972;2023-02-28T12:42:44;4.03;;;2.90;;
2011;SDS011;1009;51.436;6.972;2023-02-28T12:45:15;3.90;;;2.63;;
2011;SDS011;1009;51.436;6.972;2023-02-28T12:47:45;3.17;;;2.60;;
2011;SDS011;1009;51.436;6.972;2023-02-28T12:50:15;4.17;;;2.60;;
2011;SDS011;1009;51.436;6.972;2023-02-28T12:52:46;4.53;;;2.50;;
2011;SDS011;1009;51.436;6.972;2023-02-28T12:55:21;4.50;;;2.53;;
2011;SDS011;1009;51.436;6.972;2023-02-28T12:57:56;3.30;;;2.93;;
2011;SDS011;1009;51.436;6.972;2023-02-28T13:00:29;3.87;;;3.30;;
2011;SDS011;1009;51.436;6.972;2023-02-28T13:03:06;2.97;;;2.70;;
2011;SDS011;1009;51.436;6.972;2023-02-28T13:06:02;3.40;;;3.03;;
2011;SDS011;1009;51.436;6.972;2023-02-28T13:08:49;4.73;;;3.07;;
2011;SDS011;1009;51.436;6.972;2023-02-28T13:11:31;4.10;;;2.90;;
2011;SDS011;1009;51.436;6.972;2023-02-28T13:14:02;3.27;;;2.90;;
2011;SDS011;1009;51.436;6.972;2023-02-28T13:19:17;4.30;;;3.10;;
2011;SDS011;1009;51.436;6.972;2023-02-28T13:21:48;3.00;;;2.70;;
2011;SDS011;1009;51.436;6.972;2023-02-28T13:33:20;2.87;;;2.50;;
2011;SDS011;1009;51.436;6.972;2023-02-28T13:35:50;3.93;;;3.00;;
2011;SDS011;1009;51.436;6.972;2023-02-28T13:38:35;4.80;;;3.17;;
2011;SDS011;1009;51.436;6.972;2023-02-28T13:44:11;3.43;;;3.13;;
2011;SDS011;1009;51.436;6.972;2023-02-28T13:49:40;4.97;;;3.30;;
2011;SDS011;1009;51.436;6.972;2023-02-28T13:52:09;3.30;;;3.00;;
2011;SDS011;1009;51.436;6.972;2023-02-28T13:54:45;3.40;;;3.07;;
2011;SDS011;1009;51.436;6.972;2023-02-28T13:57:42;4.93;;;3.60;;
2011;SDS011;1009;51.436;6.972;2023-02-28T14:00:21;4.33;;;3.90;;
2011;SDS011;1009;51.436;6.972;2023-02-28T14:03:01;3.60;;;3.30;;
2011;SDS011;1009;51.436;6.972;2023-02-28T14:05:40;4.07;;;3.67;;
2011;SDS011;1009;51.436;6.972;2023-02-28T14:08:10;3.93;;;3.47;;
2011;SDS011;1009;51.436;6.972;2023-02-28T14:10:42;4.13;;;3.73;;
2011;SDS011;1009;51.436;6.972;2023-02-28T14:13:12;5.00;;;3.77;;
2011;SDS011;1009;51.436;6.972;2023-02-28T14:16:01;4.57;;;3.27;;
2011;SDS011;1009;51.436;6.972;2023-02-28T14:18:30;4.90;;;3.23;;
2011;SDS011;1009;51.436;6.972;2023-02-28T14:21:10;5.20;;;3.17;;
2011;SDS011;1009;51.436;6.972;2023-02-28T14:26:43;5.57;;;3.73;;
2011;SDS011;1009;51.436;6.972;2023-02-28T14:32:37;5.60;;;4.03;;
2011;SDS011;1009;51.436;6.972;2023-02-28T14:35:15;5.80;;;4.10;;
2011;SDS011;1009;51.436;6.972;2023-02-28T14:37:56;10.23;;;4.60;;
2011;SDS011;1009;51.436;6.972;2023-02-28T14:40:25;5.00;;;4.50;;
2011;SDS011;1009;51.436;6.972;2023-02-28T14:42:56;4.03;;;3.73;;
2011;SDS011;1009;51.436;6.972;2023-02-28T14:45:25;4.33;;;3.90;;
2011;SDS011;1009;51.436;6.972;2023-02-28T14:47:55;5.53;;;3.87;;
2011;SDS011;1009;51.436;6.972;2023-02-28T14:50:33;4.30;;;3.90;;
2011;SDS011;1009;51.436;6.972;2023-02-28T14:53:03;5.00;;;4.00;;
2011;SDS011;1009;51.436;6.972;2023-02-28T14:55:33;6.20;;;4.20;;
2011;SDS011;1009;51.436;6.972;2023-02-28T14:58:02;3.80;;;3.50;;
2011;SDS011;1009;51.436;6.972;2023-02-28T15:00:31;7.13;;;4.10;;
2011;SDS011;1009;51.436;6.972;2023-02-28T15:03:00;5.50;;;4.53;;
2011;SDS011;1009;51.436;6.972;2023-02-28T15:05:39;4.53;;;4.10;;
2011;SDS011;1009;51.436;6.972;2023-02-28T15:08:11;5.30;;;3.90;;
2011;SDS011;1009;51.436;6.972;2023-02-28T15:10:40;4.80;;;4.30;;
2011;SDS011;1009;51.436;6.972;2023-02-28T15:13:11;5.53;;;4.40;;
2011;SDS011;1009;51.436;6.972;2023-02-28T15:15:42;5.80;;;4.70;;
2011;SDS011;1009;51.436;6.972;2023-02-28T15:18:13;5.33;;;4.80;;
2011;SDS011;1009;51.436;6.972;2023-02-28T15:20:48;4.70;;;4.30;;
2011;SDS011;1009;51.436;6.972;2023-02-28T15:23:18;5.03;;;4.53;;
2011;SDS011;1009;51.436;6.972;2023-02-28T15:25:47;4.80;;;4.40;;
2011;SDS011;1009;51.436;6.972;2023-02-28T15:28:15;4.90;;;4.40;;
2011;SDS011;1009;51.436;6.972;2023-02-28T15:30:55;5.40;;;4.87;;
2011;SDS011;1009;51.436;6.972;2023-02-28T15:33:25;5.50;;;4.47;;
2011;SDS011;1009;51.436;6.972;2023-02-28T15:36:03;4.87;;;4.33;;
2011;SDS011;1009;51.436;6.972;2023-02-28T15:38:40;4.73;;;4.33;;
2011;SDS011;1009;51.436;6.972;2023-02-28T15:41:20;4.30;;;3.90;;
2011;SDS011;1009;51.436;6.972;2023-02-28T15:43:49;5.17;;;4.40;;
2011;SDS011;1009;51.436;6.972;2023-02-28T15:46:44;4.10;;;3.80;;
2011;SDS011;1009;51.436;6.972;2023-02-28T15:49:20;6.47;;;4.47;;
2011;SDS011;1009;51.436;6.972;2023-02-28T15:51:48;5.30;;;4.80;;
2011;SDS011;1009;51.436;6.972;2023-02-28T15:54:17;4.50;;;4.10;;
2011;SDS011;1009;51.436;6.972;2023-02-28T15:56:49;4.70;;;4.17;;
2011;SDS011;1009;51.436;6.972;2023-02-28T15:59:19;4.77;;;4.30;;
2011;SDS011;1009;51.436;6.972;2023-02-28T16:01:58;4.97;;;4.57;;
2011;SDS011;1009;51.436;6.972;2023-02-28T16:04:29;5.50;;;4.37;;
2011;SDS011;1009;51.436;6.972;2023-02-28T16:07:00;4.43;;;4.10;;
2011;SDS011;1009;51.436;6.972;2023-02-28T16:09:28;5.13;;;4.63;;